sensor_id;sensor_type;location;lat;lon;timestamp;temperature;humidity
12452;DHT22;6291;48.924;12.204;2023-02-14T00:04:50;2.60;1.00
12452;DHT22;6291;48.924;12.204;2023-02-14T00:09:55;2.60;99.90
12452;DHT22;6291;48.924;12.204;2023-02-14T00:14:58;2.60;99.90
12452;DHT22;6291;48.924;12.204;2023-02-14T00:20:19;2.70;99.90
12452;DHT22;6291;48.924;12.204;2023-02-14T00:25:23;2.60;1.00
12452;DHT22;6291;48.924;12.204;2023-02-14T00:30:27;2.60;99.90
12452;DHT22;6291;48.924;12.204;2023-02-14T00:35:30;2.50;1.00
12452;DHT22;6291;48.924;12.204;2023-02-14T00:40:35;2.40;99.90
12452;DHT22;6291;48.924;12.204;2023-02-14T00:45:38;2.40;1.00
12452;DHT22;6291;48.924;12.204;2023-02-14T00:50:42;2.50;99.90
12452;DHT22;6291;48.924;12.204;2023-02-14T00:55:48;2.40;99.90
12452;DHT22;6291;48.924;12.204;2023-02-14T01:00:51;2.70;99.90
12452;DHT22;6291;48.924;12.204;2023-02-14T01:05:55;4.70;1.00
12452;DHT22;6291;48.924;12.204;2023-02-14T01:11:07;2.80;99.90
12452;DHT22;6291;48.924;12.204;2023-02-14T01:16:17;2.40;1.00
12452;DHT22;6291;48.924;12.204;2023-02-14T01:21:23;2.20;1.00
12452;DHT22;6291;48.924;12.204;2023-02-14T01:26:31;2.20;99.90
12452;DHT22;6291;48.924;12.204;2023-02-14T01:31:35;2.20;1.00
12452;DHT22;6291;48.924;12.204;2023-02-14T01:36:39;2.20;1.00
12452;DHT22;6291;48.924;12.204;2023-02-14T01:41:45;2.10;26.70
12452;DHT22;6291;48.924;12.204;2023-02-14T01:46:50;4.00;1.00
12452;DHT22;6291;48.924;12.204;2023-02-14T01:51:57;1.90;91.60
12452;DHT22;6291;48.924;12.204;2023-02-14T01:57:08;1.90;99.90
12452;DHT22;6291;48.924;12.204;2023-02-14T02:02:14;1.80;1.00
12452;DHT22;6291;48.924;12.204;2023-02-14T02:07:25;1.70;1.00
12452;DHT22;6291;48.924;12.204;2023-02-14T02:12:34;1.70;99.90
12452;DHT22;6291;48.924;12.204;2023-02-14T02:17:46;1.50;99.90
12452;DHT22;6291;48.924;12.204;2023-02-14T02:34:21;2.30;99.90
12452;DHT22;6291;48.924;12.204;2023-02-14T02:39:38;0.90;99.90
12452;DHT22;6291;48.924;12.204;2023-02-14T02:44:51;0.80;99.90
12452;DHT22;6291;48.924;12.204;2023-02-14T02:50:03;0.80;99.90
12452;DHT22;6291;48.924;12.204;2023-02-14T02:55:31;0.60;99.90
12452;DHT22;6291;48.924;12.204;2023-02-14T03:01:00;0.60;99.90
12452;DHT22;6291;48.924;12.204;2023-02-14T03:06:05;0.50;99.90
12452;DHT22;6291;48.924;12.204;2023-02-14T03:11:12;0.40;99.90
12452;DHT22;6291;48.924;12.204;2023-02-14T03:16:34;0.40;99.90
12452;DHT22;6291;48.924;12.204;2023-02-14T03:21:53;0.20;99.90
12452;DHT22;6291;48.924;12.204;2023-02-14T03:27:03;0.20;99.90
12452;DHT22;6291;48.924;12.204;2023-02-14T03:32:14;0.20;99.90
12452;DHT22;6291;48.924;12.204;2023-02-14T03:37:25;0.30;99.90
12452;DHT22;6291;48.924;12.204;2023-02-14T03:42:35;0.40;99.90
12452;DHT22;6291;48.924;12.204;2023-02-14T03:47:40;0.30;99.90
12452;DHT22;6291;48.924;12.204;2023-02-14T03:52:45;0.70;99.90
12452;DHT22;6291;48.924;12.204;2023-02-14T03:57:56;0.80;99.90
12452;DHT22;6291;48.924;12.204;2023-02-14T04:03:05;0.60;99.90
12452;DHT22;6291;48.924;12.204;2023-02-14T04:08:20;0.50;99.90
12452;DHT22;6291;48.924;12.204;2023-02-14T04:13:25;0.30;99.90
12452;DHT22;6291;48.924;12.204;2023-02-14T04:18:28;0.10;99.90
12452;DHT22;6291;48.924;12.204;2023-02-14T04:23:49;0.10;99.90
12452;DHT22;6291;48.924;12.204;2023-02-14T04:28:54;0.00;99.90
12452;DHT22;6291;48.924;12.204;2023-02-14T04:33:57;0.00;99.90
12452;DHT22;6291;48.924;12.204;2023-02-14T04:39:00;0.00;99.90
12452;DHT22;6291;48.924;12.204;2023-02-14T04:44:05;0.10;99.90
12452;DHT22;6291;48.924;12.204;2023-02-14T04:49:09;0.10;99.90
12452;DHT22;6291;48.924;12.204;2023-02-14T04:54:12;0.00;99.90
12452;DHT22;6291;48.924;12.204;2023-02-14T04:59:17;0.10;99.90
12452;DHT22;6291;48.924;12.204;2023-02-14T05:04:20;0.30;99.90
12452;DHT22;6291;48.924;12.204;2023-02-14T05:09:24;2.10;99.90
12452;DHT22;6291;48.924;12.204;2023-02-14T05:14:28;0.20;99.90
12452;DHT22;6291;48.924;12.204;2023-02-14T05:19:32;0.10;99.90
12452;DHT22;6291;48.924;12.204;2023-02-14T05:24:35;0.20;99.90
12452;DHT22;6291;48.924;12.204;2023-02-14T05:29:40;0.20;99.90
12452;DHT22;6291;48.924;12.204;2023-02-14T05:34:43;0.30;99.90
12452;DHT22;6291;48.924;12.204;2023-02-14T05:39:47;0.30;99.90
12452;DHT22;6291;48.924;12.204;2023-02-14T05:44:51;0.40;99.90
12452;DHT22;6291;48.924;12.204;2023-02-14T05:49:55;0.40;99.90
12452;DHT22;6291;48.924;12.204;2023-02-14T05:54:58;0.30;99.90
12452;DHT22;6291;48.924;12.204;2023-02-14T06:00:04;0.30;99.90
12452;DHT22;6291;48.924;12.204;2023-02-14T06:05:13;0.30;99.90
12452;DHT22;6291;48.924;12.204;2023-02-14T06:10:21;2.10;99.90
12452;DHT22;6291;48.924;12.204;2023-02-14T06:15:26;0.40;99.90
12452;DHT22;6291;48.924;12.204;2023-02-14T06:20:30;0.60;99.90
12452;DHT22;6291;48.924;12.204;2023-02-14T06:25:33;1.20;99.90
12452;DHT22;6291;48.924;12.204;2023-02-14T06:30:38;2.60;99.90
12452;DHT22;6291;48.924;12.204;2023-02-14T06:35:42;1.00;99.90
12452;DHT22;6291;48.924;12.204;2023-02-14T06:40:45;0.80;99.90
12452;DHT22;6291;48.924;12.204;2023-02-14T06:45:50;1.00;99.90
12452;DHT22;6291;48.924;12.204;2023-02-14T06:50:53;1.10;99.90
12452;DHT22;6291;48.924;12.204;2023-02-14T06:55:56;1.90;99.90
12452;DHT22;6291;48.924;12.204;2023-02-14T07:01:01;0.90;99.90
12452;DHT22;6291;48.924;12.204;2023-02-14T07:06:05;1.30;99.90
12452;DHT22;6291;48.924;12.204;2023-02-14T07:11:08;0.70;99.90
12452;DHT22;6291;48.924;12.204;2023-02-14T07:16:13;1.50;99.90
12452;DHT22;6291;48.924;12.204;2023-02-14T07:21:17;0.70;99.90
12452;DHT22;6291;48.924;12.204;2023-02-14T07:26:20;1.20;99.90
12452;DHT22;6291;48.924;12.204;2023-02-14T07:31:25;0.00;99.90
12452;DHT22;6291;48.924;12.204;2023-02-14T07:36:29;2.00;99.90
12452;DHT22;6291;48.924;12.204;2023-02-14T07:41:33;1.20;71.90
12452;DHT22;6291;48.924;12.204;2023-02-14T07:46:41;1.40;99.90
12452;DHT22;6291;48.924;12.204;2023-02-14T07:51:44;1.20;99.90
12452;DHT22;6291;48.924;12.204;2023-02-14T07:56:48;1.30;99.90
12452;DHT22;6291;48.924;12.204;2023-02-14T08:01:53;1.10;99.90
12452;DHT22;6291;48.924;12.204;2023-02-14T08:06:56;1.40;99.90
12452;DHT22;6291;48.924;12.204;2023-02-14T08:12:00;1.40;99.90
12452;DHT22;6291;48.924;12.204;2023-02-14T08:17:22;1.50;99.90
12452;DHT22;6291;48.924;12.204;2023-02-14T08:22:25;2.00;99.90
12452;DHT22;6291;48.924;12.204;2023-02-14T08:27:29;2.50;1.00
12452;DHT22;6291;48.924;12.204;2023-02-14T08:32:34;2.20;1.00
12452;DHT22;6291;48.924;12.204;2023-02-14T08:37:38;2.30;1.00
12452;DHT22;6291;48.924;12.204;2023-02-14T08:42:41;2.20;1.00
12452;DHT22;6291;48.924;12.204;2023-02-14T08:47:46;2.00;1.00
12452;DHT22;6291;48.924;12.204;2023-02-14T08:52:49;2.10;1.00
12452;DHT22;6291;48.924;12.204;2023-02-14T08:57:54;2.00;1.00
12452;DHT22;6291;48.924;12.204;2023-02-14T09:02:59;2.00;1.00
12452;DHT22;6291;48.924;12.204;2023-02-14T09:08:02;1.80;18.50
12452;DHT22;6291;48.924;12.204;2023-02-14T09:13:06;2.00;99.90
12452;DHT22;6291;48.924;12.204;2023-02-14T09:18:11;2.20;3.90
12452;DHT22;6291;48.924;12.204;2023-02-14T09:23:14;2.20;1.00
12452;DHT22;6291;48.924;12.204;2023-02-14T09:28:17;2.30;1.00
12452;DHT22;6291;48.924;12.204;2023-02-14T09:33:22;1.90;80.80
12452;DHT22;6291;48.924;12.204;2023-02-14T09:38:26;2.10;99.90
12452;DHT22;6291;48.924;12.204;2023-02-14T09:43:32;2.10;1.00
12452;DHT22;6291;48.924;12.204;2023-02-14T09:48:42;2.10;3.00
12452;DHT22;6291;48.924;12.204;2023-02-14T09:53:51;2.30;1.00
12452;DHT22;6291;48.924;12.204;2023-02-14T09:58:59;2.00;1.00
12452;DHT22;6291;48.924;12.204;2023-02-14T10:04:19;2.10;1.00
12452;DHT22;6291;48.924;12.204;2023-02-14T10:09:51;1.50;99.90
12452;DHT22;6291;48.924;12.204;2023-02-14T10:14:59;1.50;99.90
12452;DHT22;6291;48.924;12.204;2023-02-14T10:20:15;1.60;99.90
12452;DHT22;6291;48.924;12.204;2023-02-14T10:25:22;1.70;99.90
12452;DHT22;6291;48.924;12.204;2023-02-14T10:30:33;1.50;99.90
12452;DHT22;6291;48.924;12.204;2023-02-14T10:35:45;1.70;99.90
12452;DHT22;6291;48.924;12.204;2023-02-14T10:41:08;1.40;99.90
12452;DHT22;6291;48.924;12.204;2023-02-14T10:46:26;1.70;99.90
12452;DHT22;6291;48.924;12.204;2023-02-14T10:51:38;2.00;87.40
12452;DHT22;6291;48.924;12.204;2023-02-14T10:56:45;2.30;99.90
12452;DHT22;6291;48.924;12.204;2023-02-14T11:01:53;2.50;1.00
12452;DHT22;6291;48.924;12.204;2023-02-14T11:06:58;2.50;1.00
12452;DHT22;6291;48.924;12.204;2023-02-14T11:12:01;2.10;1.00
12452;DHT22;6291;48.924;12.204;2023-02-14T11:17:29;2.20;1.00
12452;DHT22;6291;48.924;12.204;2023-02-14T11:22:35;1.70;99.90
12452;DHT22;6291;48.924;12.204;2023-02-14T11:27:42;1.60;99.90
12452;DHT22;6291;48.924;12.204;2023-02-14T11:32:50;1.70;99.90
12452;DHT22;6291;48.924;12.204;2023-02-14T11:37:59;2.00;99.90
12452;DHT22;6291;48.924;12.204;2023-02-14T11:43:18;2.30;1.00
12452;DHT22;6291;48.924;12.204;2023-02-14T11:48:23;2.20;1.00
12452;DHT22;6291;48.924;12.204;2023-02-14T11:53:46;2.50;1.00
12452;DHT22;6291;48.924;12.204;2023-02-14T11:58:54;2.60;1.00
12452;DHT22;6291;48.924;12.204;2023-02-14T12:04:00;2.80;1.00
12452;DHT22;6291;48.924;12.204;2023-02-14T12:09:24;2.70;99.90
12452;DHT22;6291;48.924;12.204;2023-02-14T12:14:30;2.20;1.00
12452;DHT22;6291;48.924;12.204;2023-02-14T12:19:37;2.10;1.00
12452;DHT22;6291;48.924;12.204;2023-02-14T12:24:49;1.70;25.80
12452;DHT22;6291;48.924;12.204;2023-02-14T12:30:00;1.80;99.90
12452;DHT22;6291;48.924;12.204;2023-02-14T12:35:13;2.50;77.40
12452;DHT22;6291;48.924;12.204;2023-02-14T12:40:21;2.70;1.00
12452;DHT22;6291;48.924;12.204;2023-02-14T12:45:37;2.60;99.90
12452;DHT22;6291;48.924;12.204;2023-02-14T12:50:52;2.60;1.00
12452;DHT22;6291;48.924;12.204;2023-02-14T12:56:09;2.80;1.00
12452;DHT22;6291;48.924;12.204;2023-02-14T13:01:32;2.80;1.00
12452;DHT22;6291;48.924;12.204;2023-02-14T13:06:44;2.80;1.00
12452;DHT22;6291;48.924;12.204;2023-02-14T13:11:58;2.80;99.90
12452;DHT22;6291;48.924;12.204;2023-02-14T13:17:14;2.70;1.00
12452;DHT22;6291;48.924;12.204;2023-02-14T13:22:21;2.40;1.00
12452;DHT22;6291;48.924;12.204;2023-02-14T13:27:30;2.60;1.00
12452;DHT22;6291;48.924;12.204;2023-02-14T13:32:37;2.70;1.00
12452;DHT22;6291;48.924;12.204;2023-02-14T13:37:50;2.00;60.00
12452;DHT22;6291;48.924;12.204;2023-02-14T13:42:57;2.00;99.90
12452;DHT22;6291;48.924;12.204;2023-02-14T13:48:03;2.00;83.40
12452;DHT22;6291;48.924;12.204;2023-02-14T13:53:10;2.20;60.40
12452;DHT22;6291;48.924;12.204;2023-02-14T13:58:18;2.10;1.00
12452;DHT22;6291;48.924;12.204;2023-02-14T14:09:02;1.90;63.20
12452;DHT22;6291;48.924;12.204;2023-02-14T14:14:32;1.90;99.90
12452;DHT22;6291;48.924;12.204;2023-02-14T14:19:38;2.10;1.00
12452;DHT22;6291;48.924;12.204;2023-02-14T14:24:54;2.20;90.10
12452;DHT22;6291;48.924;12.204;2023-02-14T14:30:00;2.40;1.00
12452;DHT22;6291;48.924;12.204;2023-02-14T14:35:19;2.40;1.00
12452;DHT22;6291;48.924;12.204;2023-02-14T14:40:26;2.40;1.00
12452;DHT22;6291;48.924;12.204;2023-02-14T14:45:31;2.50;1.00
12452;DHT22;6291;48.924;12.204;2023-02-14T14:50:35;2.40;1.00
12452;DHT22;6291;48.924;12.204;2023-02-14T14:55:44;2.40;1.00
12452;DHT22;6291;48.924;12.204;2023-02-14T15:00:54;2.30;1.00
12452;DHT22;6291;48.924;12.204;2023-02-14T15:06:13;2.30;1.00
12452;DHT22;6291;48.924;12.204;2023-02-14T15:11:20;2.30;1.00
12452;DHT22;6291;48.924;12.204;2023-02-14T15:16:47;2.30;1.00
12452;DHT22;6291;48.924;12.204;2023-02-14T15:21:50;2.30;1.00
12452;DHT22;6291;48.924;12.204;2023-02-14T15:26:55;2.20;1.00
12452;DHT22;6291;48.924;12.204;2023-02-14T15:32:00;2.20;1.00
12452;DHT22;6291;48.924;12.204;2023-02-14T15:37:05;1.70;28.90
12452;DHT22;6291;48.924;12.204;2023-02-14T15:42:19;1.30;99.90
12452;DHT22;6291;48.924;12.204;2023-02-14T15:47:25;1.30;99.90
12452;DHT22;6291;48.924;12.204;2023-02-14T15:52:28;1.40;99.90
12452;DHT22;6291;48.924;12.204;2023-02-14T15:57:32;1.50;99.90
12452;DHT22;6291;48.924;12.204;2023-02-14T16:02:38;1.50;99.90
12452;DHT22;6291;48.924;12.204;2023-02-14T16:07:55;1.60;99.90
12452;DHT22;6291;48.924;12.204;2023-02-14T16:13:01;1.30;99.90
12452;DHT22;6291;48.924;12.204;2023-02-14T16:18:16;3.30;99.90
12452;DHT22;6291;48.924;12.204;2023-02-14T16:23:23;1.40;99.90
12452;DHT22;6291;48.924;12.204;2023-02-14T16:28:28;1.10;99.90
12452;DHT22;6291;48.924;12.204;2023-02-14T16:33:34;0.90;99.90
12452;DHT22;6291;48.924;12.204;2023-02-14T16:38:41;0.90;99.90
12452;DHT22;6291;48.924;12.204;2023-02-14T16:43:45;1.00;99.90
12452;DHT22;6291;48.924;12.204;2023-02-14T16:48:51;0.80;99.90
12452;DHT22;6291;48.924;12.204;2023-02-14T16:53:55;0.70;99.90
12452;DHT22;6291;48.924;12.204;2023-02-14T16:58:59;0.90;99.90
12452;DHT22;6291;48.924;12.204;2023-02-14T17:04:04;0.50;99.90
12452;DHT22;6291;48.924;12.204;2023-02-14T17:09:09;0.50;99.90
12452;DHT22;6291;48.924;12.204;2023-02-14T17:14:17;0.40;99.90
12452;DHT22;6291;48.924;12.204;2023-02-14T17:19:22;0.70;99.90
12452;DHT22;6291;48.924;12.204;2023-02-14T17:24:25;0.60;99.90
12452;DHT22;6291;48.924;12.204;2023-02-14T17:29:29;0.50;99.90
12452;DHT22;6291;48.924;12.204;2023-02-14T17:34:34;0.50;99.90
12452;DHT22;6291;48.924;12.204;2023-02-14T17:39:37;0.60;99.90
12452;DHT22;6291;48.924;12.204;2023-02-14T17:44:40;0.70;99.90
12452;DHT22;6291;48.924;12.204;2023-02-14T17:49:45;0.70;99.90
12452;DHT22;6291;48.924;12.204;2023-02-14T17:54:49;0.60;99.90
12452;DHT22;6291;48.924;12.204;2023-02-14T17:59:53;0.70;99.90
12452;DHT22;6291;48.924;12.204;2023-02-14T18:04:57;0.60;99.90
12452;DHT22;6291;48.924;12.204;2023-02-14T18:10:01;0.60;99.90
12452;DHT22;6291;48.924;12.204;2023-02-14T18:15:05;0.60;99.90
12452;DHT22;6291;48.924;12.204;2023-02-14T18:20:10;0.70;99.90
12452;DHT22;6291;48.924;12.204;2023-02-14T18:25:14;0.80;99.90
12452;DHT22;6291;48.924;12.204;2023-02-14T18:30:18;0.80;99.90
12452;DHT22;6291;48.924;12.204;2023-02-14T18:35:23;0.80;99.90
12452;DHT22;6291;48.924;12.204;2023-02-14T18:40:26;0.80;99.90
12452;DHT22;6291;48.924;12.204;2023-02-14T18:45:33;0.70;99.90
12452;DHT22;6291;48.924;12.204;2023-02-14T18:50:38;0.70;99.90
12452;DHT22;6291;48.924;12.204;2023-02-14T18:55:41;1.80;99.90
12452;DHT22;6291;48.924;12.204;2023-02-14T19:00:45;0.60;99.90
12452;DHT22;6291;48.924;12.204;2023-02-14T19:05:49;0.50;99.90
12452;DHT22;6291;48.924;12.204;2023-02-14T19:10:54;0.50;99.90
12452;DHT22;6291;48.924;12.204;2023-02-14T19:15:58;0.60;99.90
12452;DHT22;6291;48.924;12.204;2023-02-14T19:21:09;0.70;99.90
12452;DHT22;6291;48.924;12.204;2023-02-14T19:26:14;0.70;99.90
12452;DHT22;6291;48.924;12.204;2023-02-14T19:31:18;0.40;99.90
12452;DHT22;6291;48.924;12.204;2023-02-14T19:36:23;0.50;99.90
12452;DHT22;6291;48.924;12.204;2023-02-14T19:41:28;0.40;99.90
12452;DHT22;6291;48.924;12.204;2023-02-14T19:46:33;0.50;99.90
12452;DHT22;6291;48.924;12.204;2023-02-14T19:51:37;0.40;99.90
12452;DHT22;6291;48.924;12.204;2023-02-14T19:56:42;0.80;99.90
12452;DHT22;6291;48.924;12.204;2023-02-14T20:01:48;0.50;99.90
12452;DHT22;6291;48.924;12.204;2023-02-14T20:06:54;0.50;99.90
12452;DHT22;6291;48.924;12.204;2023-02-14T20:11:57;0.50;99.90
12452;DHT22;6291;48.924;12.204;2023-02-14T20:17:04;0.60;99.90
12452;DHT22;6291;48.924;12.204;2023-02-14T20:22:10;0.50;99.90
12452;DHT22;6291;48.924;12.204;2023-02-14T20:27:13;0.40;99.90
12452;DHT22;6291;48.924;12.204;2023-02-14T20:32:17;0.50;99.90
12452;DHT22;6291;48.924;12.204;2023-02-14T20:37:22;0.40;99.90
12452;DHT22;6291;48.924;12.204;2023-02-14T20:42:26;0.40;99.90
12452;DHT22;6291;48.924;12.204;2023-02-14T20:47:29;0.30;99.90
12452;DHT22;6291;48.924;12.204;2023-02-14T20:52:35;0.20;99.90
12452;DHT22;6291;48.924;12.204;2023-02-14T20:57:39;0.20;99.90
12452;DHT22;6291;48.924;12.204;2023-02-14T21:02:42;0.20;99.90
12452;DHT22;6291;48.924;12.204;2023-02-14T21:07:47;0.10;99.90
12452;DHT22;6291;48.924;12.204;2023-02-14T21:12:51;0.10;99.90
12452;DHT22;6291;48.924;12.204;2023-02-14T21:17:55;0.10;99.90
12452;DHT22;6291;48.924;12.204;2023-02-14T21:23:01;0.10;99.90
12452;DHT22;6291;48.924;12.204;2023-02-14T21:28:04;0.10;99.90
12452;DHT22;6291;48.924;12.204;2023-02-14T21:33:07;-0.10;99.90
12452;DHT22;6291;48.924;12.204;2023-02-14T21:38:12;-0.20;99.90
12452;DHT22;6291;48.924;12.204;2023-02-14T21:43:16;-0.10;99.90
12452;DHT22;6291;48.924;12.204;2023-02-14T21:48:19;-0.30;99.90
12452;DHT22;6291;48.924;12.204;2023-02-14T21:53:41;-0.10;99.90
12452;DHT22;6291;48.924;12.204;2023-02-14T21:58:46;-0.10;99.90
12452;DHT22;6291;48.924;12.204;2023-02-14T22:03:50;0.00;99.90
12452;DHT22;6291;48.924;12.204;2023-02-14T22:08:58;0.00;99.90
12452;DHT22;6291;48.924;12.204;2023-02-14T22:14:02;0.00;99.90
12452;DHT22;6291;48.924;12.204;2023-02-14T22:19:06;-0.30;99.90
12452;DHT22;6291;48.924;12.204;2023-02-14T22:24:11;-0.20;99.90
12452;DHT22;6291;48.924;12.204;2023-02-14T22:29:14;-0.30;99.90
12452;DHT22;6291;48.924;12.204;2023-02-14T22:34:18;-0.20;99.90
12452;DHT22;6291;48.924;12.204;2023-02-14T22:39:23;-0.30;99.90
12452;DHT22;6291;48.924;12.204;2023-02-14T22:44:26;-0.20;99.90
12452;DHT22;6291;48.924;12.204;2023-02-14T22:49:30;-0.30;99.90
12452;DHT22;6291;48.924;12.204;2023-02-14T22:54:34;-0.40;99.90
12452;DHT22;6291;48.924;12.204;2023-02-14T22:59:38;-0.40;99.90
12452;DHT22;6291;48.924;12.204;2023-02-14T23:04:41;-0.40;99.90
12452;DHT22;6291;48.924;12.204;2023-02-14T23:09:48;-0.30;99.90
12452;DHT22;6291;48.924;12.204;2023-02-14T23:14:51;-0.30;99.90
12452;DHT22;6291;48.924;12.204;2023-02-14T23:20:12;-0.20;99.90
12452;DHT22;6291;48.924;12.204;2023-02-14T23:25:34;-0.10;99.90
12452;DHT22;6291;48.924;12.204;2023-02-14T23:30:37;-0.10;99.90
12452;DHT22;6291;48.924;12.204;2023-02-14T23:35:40;0.10;99.90
12452;DHT22;6291;48.924;12.204;2023-02-14T23:40:45;-0.20;99.90
12452;DHT22;6291;48.924;12.204;2023-02-14T23:46:05;-0.20;99.90
12452;DHT22;6291;48.924;12.204;2023-02-14T23:51:08;-0.20;99.90
12452;DHT22;6291;48.924;12.204;2023-02-14T23:56:13;-0.30;99.90
